createdAt,value
2022-12-08T00:02:09.182Z,-1.18
2022-12-08T00:04:57.698Z,-1.20
2022-12-08T00:07:44.850Z,-1.22
2022-12-08T00:10:46.525Z,-1.24
2022-12-08T00:13:01.717Z,-1.27
2022-12-08T00:15:30.152Z,-1.28
2022-12-08T00:17:58.693Z,-1.28
2022-12-08T00:20:27.104Z,-1.29
2022-12-08T00:22:55.474Z,-1.29
2022-12-08T00:25:24.048Z,-1.28
2022-12-08T00:27:52.340Z,-1.28
2022-12-08T00:30:20.951Z,-1.28
2022-12-08T00:32:49.217Z,-1.28
2022-12-08T00:35:17.908Z,-1.28
2022-12-08T00:37:46.387Z,-1.29
2022-12-08T00:40:15.082Z,-1.30
2022-12-08T00:42:43.446Z,-1.30
2022-12-08T00:45:12.223Z,-1.31
2022-12-08T00:47:40.697Z,-1.32
2022-12-08T00:50:09.969Z,-1.33
2022-12-08T00:52:38.935Z,-1.34
2022-12-08T00:55:07.646Z,-1.35
2022-12-08T00:57:36.333Z,-1.35
2022-12-08T01:00:05.797Z,-1.36
2022-12-08T01:02:35.231Z,-1.36
2022-12-08T01:05:04.095Z,-1.36
2022-12-08T01:07:32.657Z,-1.36
2022-12-08T01:10:01.236Z,-1.36
2022-12-08T01:12:30.821Z,-1.36
2022-12-08T01:15:02.222Z,-1.35
2022-12-08T01:17:31.066Z,-1.37
2022-12-08T01:19:59.647Z,-1.40
2022-12-08T01:22:28.559Z,-1.43
2022-12-08T01:24:56.931Z,-1.46
2022-12-08T01:27:25.414Z,-1.46
2022-12-08T01:29:53.826Z,-1.47
2022-12-08T01:32:22.085Z,-1.48
2022-12-08T01:34:50.456Z,-1.49
2022-12-08T01:37:18.751Z,-1.49
2022-12-08T01:39:47.134Z,-1.49
2022-12-08T01:42:26.088Z,-1.47
2022-12-08T01:45:03.111Z,-1.44
2022-12-08T01:47:38.343Z,-1.42
2022-12-08T01:50:09.722Z,-1.42
2022-12-08T01:52:50.534Z,-1.40
2022-12-08T01:55:59.800Z,-1.41
2022-12-08T01:58:50.070Z,-1.40
2022-12-08T02:01:19.023Z,-1.41
2022-12-08T02:04:01.059Z,-1.43
2022-12-08T02:06:35.343Z,-1.46
2022-12-08T02:09:07.186Z,-1.45
2022-12-08T02:11:35.720Z,-1.45
2022-12-08T02:14:07.610Z,-1.45
2022-12-08T02:16:43.350Z,-1.47
2022-12-08T02:19:45.590Z,-1.51
2022-12-08T02:22:43.811Z,-1.54
2022-12-08T02:25:31.755Z,-1.58
2022-12-08T02:28:10.761Z,-1.61
2022-12-08T02:30:47.037Z,-1.64
2022-12-08T02:33:34.181Z,-1.67
2022-12-08T02:36:12.462Z,-1.70
2022-12-08T02:38:47.439Z,-1.73
2022-12-08T02:41:38.142Z,-1.74
2022-12-08T02:44:18.636Z,-1.75
2022-12-08T02:46:56.146Z,-1.76
2022-12-08T02:49:35.810Z,-1.78
2022-12-08T02:52:06.262Z,-1.80
2022-12-08T02:54:36.741Z,-1.81
2022-12-08T02:57:36.666Z,-1.81
2022-12-08T03:00:16.198Z,-1.83
2022-12-08T03:03:03.703Z,-1.85
2022-12-08T03:05:55.305Z,-1.87
2022-12-08T03:09:02.512Z,-1.90
2022-12-08T03:11:39.726Z,-1.91
2022-12-08T03:14:11.015Z,-1.94
2022-12-08T03:16:44.078Z,-1.96
2022-12-08T03:19:23.724Z,-1.98
2022-12-08T03:22:03.315Z,-1.98
2022-12-08T03:24:37.658Z,-1.98
2022-12-08T03:27:22.382Z,-1.97
2022-12-08T03:29:54.081Z,-1.98
2022-12-08T03:32:40.130Z,-1.98
2022-12-08T03:35:18.108Z,-1.99
2022-12-08T03:37:47.111Z,-2.00
2022-12-08T03:40:19.895Z,-2.00
2022-12-08T03:42:48.265Z,-2.01
2022-12-08T03:45:16.704Z,-2.03
2022-12-08T03:47:45.128Z,-2.02
2022-12-08T03:50:13.476Z,-2.02
2022-12-08T03:52:41.782Z,-2.02
2022-12-08T03:55:36.246Z,-2.01
2022-12-08T03:58:04.781Z,-1.99
2022-12-08T04:00:33.110Z,-1.98
2022-12-08T04:03:01.496Z,-1.98
2022-12-08T04:05:30.020Z,-1.98
2022-12-08T04:07:58.463Z,-1.96
2022-12-08T04:10:26.817Z,-1.96
2022-12-08T04:12:57.395Z,-1.93
2022-12-08T04:15:25.703Z,-1.91
2022-12-08T04:17:54.061Z,-1.86
2022-12-08T04:20:22.387Z,-1.87
2022-12-08T04:22:50.906Z,-1.88
2022-12-08T04:25:19.282Z,-1.87
2022-12-08T04:27:47.647Z,-1.88
2022-12-08T04:30:16.193Z,-1.88
2022-12-08T04:32:47.518Z,-1.87
2022-12-08T04:35:16.245Z,-1.87
2022-12-08T04:37:44.903Z,-1.87
2022-12-08T04:40:14.000Z,-1.86
2022-12-08T04:42:42.366Z,-1.88
2022-12-08T04:45:10.922Z,-1.87
2022-12-08T04:47:39.331Z,-1.87
2022-12-08T04:50:09.253Z,-1.88
2022-12-08T04:52:37.851Z,-1.90
2022-12-08T04:55:31.296Z,-1.88
2022-12-08T04:57:59.677Z,-1.85
2022-12-08T05:00:28.042Z,-1.84
2022-12-08T05:02:56.648Z,-1.82
2022-12-08T05:05:28.358Z,-1.82
2022-12-08T05:07:56.823Z,-1.82
2022-12-08T05:10:25.175Z,-1.82
2022-12-08T05:12:53.507Z,-1.82
2022-12-08T05:15:21.839Z,-1.81
2022-12-08T05:17:50.279Z,-1.79
2022-12-08T05:20:18.616Z,-1.79
2022-12-08T05:22:47.213Z,-1.78
2022-12-08T05:25:15.695Z,-1.78
2022-12-08T05:27:44.255Z,-1.77
2022-12-08T05:30:12.786Z,-1.80
2022-12-08T05:32:41.297Z,-1.88
2022-12-08T05:35:10.204Z,-1.90
2022-12-08T05:37:38.689Z,-1.91
2022-12-08T05:40:08.253Z,-1.93
2022-12-08T05:42:36.618Z,-1.94
2022-12-08T05:45:05.663Z,-1.98
2022-12-08T05:47:36.145Z,-2.01
2022-12-08T05:50:06.729Z,-2.06
2022-12-08T05:52:35.227Z,-2.10
2022-12-08T05:55:04.201Z,-2.10
2022-12-08T05:57:32.601Z,-2.12
2022-12-08T06:00:01.178Z,-2.15
2022-12-08T06:02:29.860Z,-2.19
2022-12-08T06:04:58.303Z,-2.22
2022-12-08T06:07:26.682Z,-2.22
2022-12-08T06:09:55.039Z,-2.24
2022-12-08T06:12:23.431Z,-2.27
2022-12-08T06:14:52.057Z,-2.26
2022-12-08T06:17:20.494Z,-2.27
2022-12-08T06:19:48.895Z,-2.27
2022-12-08T06:22:17.387Z,-2.26
2022-12-08T06:24:45.647Z,-2.23
2022-12-08T06:27:13.991Z,-2.19
2022-12-08T06:29:42.411Z,-2.14
2022-12-08T06:32:12.685Z,-2.11
2022-12-08T06:34:41.003Z,-2.08
2022-12-08T06:37:09.404Z,-2.04
2022-12-08T06:39:37.750Z,-1.99
2022-12-08T06:42:24.659Z,-1.95
2022-12-08T06:44:53.437Z,-1.90
2022-12-08T06:47:26.199Z,-1.87
2022-12-08T06:49:54.951Z,-1.82
2022-12-08T06:52:23.333Z,-1.78
2022-12-08T06:55:42.486Z,-1.73
2022-12-08T06:58:05.603Z,-1.66
2022-12-08T07:00:34.154Z,-1.61
2022-12-08T07:03:02.570Z,-1.59
2022-12-08T07:05:31.076Z,-1.56
2022-12-08T07:07:59.686Z,-1.53
2022-12-08T07:10:28.641Z,-1.50
2022-12-08T07:12:57.020Z,-1.50
2022-12-08T07:15:26.230Z,-1.48
2022-12-08T07:17:59.585Z,-1.46
2022-12-08T07:20:28.619Z,-1.43
2022-12-08T07:22:57.227Z,-1.40
2022-12-08T07:25:25.622Z,-1.37
2022-12-08T07:27:53.983Z,-1.33
2022-12-08T07:30:22.533Z,-1.29
2022-12-08T07:32:50.797Z,-1.27
2022-12-08T07:35:19.273Z,-1.24
2022-12-08T07:37:47.499Z,-1.19
2022-12-08T07:40:16.311Z,-1.17
2022-12-08T07:42:44.739Z,-1.15
2022-12-08T07:45:13.116Z,-1.12
2022-12-08T07:47:41.670Z,-1.09
2022-12-08T07:50:10.579Z,-1.05
2022-12-08T07:52:38.914Z,-1.03
2022-12-08T07:55:18.767Z,-1.00
2022-12-08T07:57:47.158Z,-0.92
2022-12-08T08:00:16.411Z,-0.86
2022-12-08T08:02:45.053Z,-0.85
2022-12-08T08:05:13.724Z,-0.82
2022-12-08T08:07:44.004Z,-0.78
2022-12-08T08:10:13.348Z,-0.73
2022-12-08T08:12:41.808Z,-0.72
2022-12-08T08:15:10.822Z,-0.70
2022-12-08T08:17:39.582Z,-0.66
2022-12-08T08:20:08.509Z,-0.62
2022-12-08T08:22:37.496Z,-0.56
2022-12-08T08:25:06.160Z,-0.54
2022-12-08T08:27:34.661Z,-0.54
2022-12-08T08:30:04.215Z,-0.54
2022-12-08T08:32:34.295Z,-0.54
2022-12-08T08:35:03.711Z,-0.54
2022-12-08T08:37:32.140Z,-0.53
2022-12-08T08:40:00.594Z,-0.52
2022-12-08T08:42:28.895Z,-0.52
2022-12-08T08:44:57.550Z,-0.52
2022-12-08T08:47:26.005Z,-0.52
2022-12-08T08:49:54.543Z,-0.53
2022-12-08T08:52:23.015Z,-0.54
2022-12-08T08:54:54.458Z,-0.52
2022-12-08T08:57:25.723Z,-0.50
2022-12-08T08:59:55.052Z,-0.45
2022-12-08T09:02:23.723Z,-0.39
2022-12-08T09:04:52.637Z,-0.35
2022-12-08T09:07:21.172Z,-0.31
2022-12-08T09:09:49.605Z,-0.27
2022-12-08T09:12:17.953Z,-0.21
2022-12-08T09:14:47.160Z,-0.11
2022-12-08T09:17:16.481Z,-0.01
2022-12-08T09:19:45.204Z,0.02
2022-12-08T09:22:16.769Z,0.07
2022-12-08T09:24:45.176Z,0.10
2022-12-08T09:27:13.662Z,0.09
2022-12-08T09:29:41.995Z,0.10
2022-12-08T09:32:10.889Z,0.12
2022-12-08T09:34:39.295Z,0.16
2022-12-08T09:37:07.718Z,0.21
2022-12-08T09:39:36.138Z,0.26
2022-12-08T09:42:09.651Z,0.27
2022-12-08T09:44:48.103Z,0.28
2022-12-08T09:47:22.451Z,0.33
2022-12-08T09:50:03.086Z,0.35
2022-12-08T09:52:41.286Z,0.40
2022-12-08T09:55:23.926Z,0.40
2022-12-08T09:58:02.199Z,0.41
2022-12-08T10:00:30.980Z,0.47
2022-12-08T10:03:00.426Z,0.50
2022-12-08T10:05:34.113Z,0.53
2022-12-08T10:08:16.926Z,0.54
2022-12-08T10:10:57.670Z,0.61
2022-12-08T10:13:40.964Z,0.72
2022-12-08T10:16:30.165Z,0.82
2022-12-08T10:19:11.737Z,1.04
2022-12-08T10:21:41.399Z,1.18
2022-12-08T10:24:37.717Z,1.34
2022-12-08T10:27:11.709Z,1.47
2022-12-08T10:29:43.084Z,1.54
2022-12-08T10:32:19.970Z,1.57
2022-12-08T10:35:12.336Z,1.56
2022-12-08T10:37:41.511Z,1.51
2022-12-08T10:40:17.321Z,1.50
2022-12-08T10:42:51.569Z,1.53
2022-12-08T10:45:30.488Z,1.56
2022-12-08T10:48:18.726Z,1.56
2022-12-08T10:50:50.422Z,1.50
2022-12-08T10:53:28.129Z,1.47
2022-12-08T10:56:02.903Z,1.42
2022-12-08T10:58:35.743Z,1.33
2022-12-08T11:01:15.112Z,1.29
2022-12-08T11:03:49.362Z,1.25
2022-12-08T11:06:37.056Z,1.23
2022-12-08T11:09:18.043Z,1.25
2022-12-08T11:12:01.271Z,1.33
2022-12-08T11:14:32.936Z,1.45
2022-12-08T11:17:09.203Z,1.48
2022-12-08T11:19:40.379Z,1.48
2022-12-08T11:22:31.097Z,1.54
2022-12-08T11:25:12.225Z,1.57
2022-12-08T11:27:44.563Z,1.61
2022-12-08T11:30:25.284Z,1.68
2022-12-08T11:33:02.347Z,1.77
2022-12-08T11:35:35.472Z,1.80
2022-12-08T11:38:23.094Z,1.76
2022-12-08T11:40:59.115Z,1.71
2022-12-08T11:44:10.984Z,1.66
2022-12-08T11:47:05.079Z,1.66
2022-12-08T11:49:42.323Z,1.66
2022-12-08T11:52:42.488Z,1.62
2022-12-08T11:55:37.565Z,1.65
2022-12-08T11:58:21.999Z,1.67
2022-12-08T12:00:50.748Z,1.73
2022-12-08T12:03:29.053Z,1.76
2022-12-08T12:06:54.183Z,1.76
2022-12-08T12:09:39.852Z,1.75
2022-12-08T12:12:19.619Z,1.76
2022-12-08T12:15:16.187Z,1.79
2022-12-08T12:17:48.664Z,1.85
2022-12-08T12:20:29.309Z,1.82
2022-12-08T12:23:08.696Z,1.81
2022-12-08T12:25:38.607Z,1.79
2022-12-08T12:28:09.637Z,1.80
2022-12-08T12:31:12.785Z,1.84
2022-12-08T12:33:43.967Z,1.82
2022-12-08T12:36:17.327Z,1.83
2022-12-08T12:39:01.553Z,1.92
2022-12-08T12:41:46.538Z,2.00
2022-12-08T12:44:14.870Z,2.02
2022-12-08T12:46:53.629Z,1.99
2022-12-08T12:49:40.172Z,1.99
2022-12-08T12:52:17.178Z,2.05
2022-12-08T12:55:11.499Z,2.06
2022-12-08T12:57:53.155Z,2.06
2022-12-08T13:00:25.265Z,2.07
2022-12-08T13:02:58.144Z,2.10
2022-12-08T13:05:30.347Z,2.13
2022-12-08T13:08:08.983Z,2.14
2022-12-08T13:10:39.815Z,2.16
2022-12-08T13:13:12.603Z,2.22
2022-12-08T13:16:15.528Z,2.23
2022-12-08T13:18:51.632Z,2.23
2022-12-08T13:21:23.441Z,2.27
2022-12-08T13:24:14.480Z,2.40
2022-12-08T13:26:51.264Z,2.48
2022-12-08T13:29:26.948Z,2.59
2022-12-08T13:31:57.322Z,2.63
2022-12-08T13:34:37.948Z,2.57
2022-12-08T13:37:12.124Z,2.49
2022-12-08T13:39:40.574Z,2.41
2022-12-08T13:42:21.030Z,2.36
2022-12-08T13:49:26.282Z,2.19
2022-12-08T13:55:13.636Z,2.06
2022-12-08T13:57:27.774Z,1.97
2022-12-08T14:00:01.868Z,1.90
2022-12-08T14:02:33.403Z,1.82
2022-12-08T14:05:40.539Z,1.76
2022-12-08T14:07:55.862Z,1.69
2022-12-08T14:10:29.506Z,1.64
2022-12-08T14:13:07.078Z,1.59
2022-12-08T14:15:38.625Z,1.53
2022-12-08T14:18:24.492Z,1.46
2022-12-08T14:21:21.411Z,1.40
2022-12-08T14:23:50.582Z,1.35
2022-12-08T14:26:18.923Z,1.31
2022-12-08T14:28:47.380Z,1.26
2022-12-08T14:31:17.765Z,1.19
2022-12-08T14:33:50.596Z,1.15
2022-12-08T14:36:24.513Z,1.12
2022-12-08T14:38:56.280Z,1.09
2022-12-08T14:41:33.609Z,1.06
2022-12-08T14:44:03.126Z,1.03
2022-12-08T14:46:32.224Z,1.00
2022-12-08T14:49:00.641Z,0.98
2022-12-08T14:51:33.681Z,0.94
2022-12-08T14:54:15.712Z,0.91
2022-12-08T14:56:52.499Z,0.89
2022-12-08T14:59:33.781Z,0.87
2022-12-08T15:02:22.498Z,0.84
2022-12-08T15:05:14.975Z,0.82
2022-12-08T15:07:43.501Z,0.80
2022-12-08T15:10:18.157Z,0.78
2022-12-08T15:13:22.399Z,0.76
2022-12-08T15:15:53.563Z,0.74
2022-12-08T15:18:29.902Z,0.72
2022-12-08T15:21:05.215Z,0.72
2022-12-08T15:23:43.699Z,0.69
2022-12-08T15:26:24.882Z,0.67
2022-12-08T15:28:54.943Z,0.64
2022-12-08T15:31:23.669Z,0.63
2022-12-08T15:33:52.279Z,0.63
2022-12-08T15:36:20.775Z,0.62
2022-12-08T15:38:49.120Z,0.62
2022-12-08T15:41:17.785Z,0.59
2022-12-08T15:43:46.672Z,0.58
2022-12-08T15:46:15.059Z,0.57
2022-12-08T15:48:45.009Z,0.56
2022-12-08T15:51:14.120Z,0.54
2022-12-08T15:53:42.891Z,0.53
2022-12-08T15:56:27.365Z,0.53
2022-12-08T15:58:57.822Z,0.53
2022-12-08T16:01:28.068Z,0.52
2022-12-08T16:04:36.898Z,0.51
2022-12-08T16:07:20.273Z,0.51
2022-12-08T16:09:42.709Z,0.50
2022-12-08T16:18:28.535Z,0.53
2022-12-08T16:21:31.542Z,0.54
2022-12-08T16:23:46.586Z,0.55
2022-12-08T16:27:22.023Z,0.58
2022-12-08T16:29:21.386Z,0.59
2022-12-08T16:31:50.792Z,0.59
2022-12-08T16:34:19.254Z,0.58
2022-12-08T16:36:47.965Z,0.58
2022-12-08T16:39:16.751Z,0.57
2022-12-08T16:42:04.246Z,0.57
2022-12-08T16:44:32.789Z,0.57
2022-12-08T16:47:09.435Z,0.57
2022-12-08T16:49:39.476Z,0.58
2022-12-08T16:52:07.903Z,0.59
2022-12-08T16:54:36.594Z,0.62
2022-12-08T16:57:05.362Z,0.63
2022-12-08T16:59:33.837Z,0.63
2022-12-08T17:02:03.697Z,0.64
2022-12-08T17:04:33.755Z,0.64
2022-12-08T17:07:02.669Z,0.65
2022-12-08T17:09:32.539Z,0.65
2022-12-08T17:12:04.084Z,0.66
2022-12-08T17:14:35.908Z,0.65
2022-12-08T17:17:05.076Z,0.64
2022-12-08T17:19:34.622Z,0.65
2022-12-08T17:22:03.387Z,0.66
2022-12-08T17:24:32.963Z,0.67
2022-12-08T17:27:05.014Z,0.70
2022-12-08T17:29:34.602Z,0.71
2022-12-08T17:32:03.513Z,0.71
2022-12-08T17:34:32.800Z,0.72
2022-12-08T17:37:01.677Z,0.73
2022-12-08T17:39:30.848Z,0.75
2022-12-08T17:41:59.430Z,0.77
2022-12-08T17:44:28.938Z,0.77
2022-12-08T17:46:57.534Z,0.77
2022-12-08T17:49:29.821Z,0.79
2022-12-08T17:52:07.656Z,0.81
2022-12-08T17:54:38.330Z,0.83
2022-12-08T17:57:08.586Z,0.84
2022-12-08T17:59:38.112Z,0.85
2022-12-08T18:02:07.230Z,0.86
2022-12-08T18:04:38.309Z,0.88
2022-12-08T18:07:07.579Z,0.89
2022-12-08T18:09:37.835Z,0.90
2022-12-08T18:12:09.654Z,0.89
2022-12-08T18:14:39.153Z,0.91
2022-12-08T18:17:09.818Z,0.91
2022-12-08T18:19:39.812Z,0.89
2022-12-08T18:22:09.801Z,0.90
2022-12-08T18:24:39.380Z,0.90
2022-12-08T18:27:08.401Z,0.90
2022-12-08T18:29:38.276Z,0.90
2022-12-08T18:32:08.978Z,0.89
2022-12-08T18:34:38.241Z,0.92
2022-12-08T18:37:10.440Z,0.91
2022-12-08T18:39:39.898Z,0.90
2022-12-08T18:42:29.125Z,0.89
2022-12-08T18:45:05.560Z,0.88
2022-12-08T18:47:40.306Z,0.86
2022-12-08T18:50:12.264Z,0.86
2022-12-08T18:52:48.383Z,0.86
2022-12-08T18:55:30.440Z,0.85
2022-12-08T18:57:59.822Z,0.83
2022-12-08T19:00:29.729Z,0.83
2022-12-08T19:02:59.150Z,0.84
2022-12-08T19:05:28.795Z,0.85
2022-12-08T19:07:59.142Z,0.85
2022-12-08T19:10:29.046Z,0.85
2022-12-08T19:12:58.543Z,0.84
2022-12-08T19:15:28.741Z,0.84
2022-12-08T19:18:05.778Z,0.83
2022-12-08T19:20:38.424Z,0.84
2022-12-08T19:23:10.413Z,0.84
2022-12-08T19:25:41.794Z,0.85
2022-12-08T19:28:12.902Z,0.87
2022-12-08T19:30:42.648Z,0.88
2022-12-08T19:33:14.377Z,0.89
2022-12-08T19:35:49.070Z,0.91
2022-12-08T19:38:25.948Z,0.93
2022-12-08T19:41:15.251Z,0.95
2022-12-08T19:44:06.780Z,0.94
2022-12-08T19:46:40.628Z,0.94
2022-12-08T19:49:10.912Z,0.96
2022-12-08T19:51:41.115Z,0.97
2022-12-08T19:54:12.772Z,0.98
2022-12-08T19:56:45.377Z,0.99
2022-12-08T19:59:16.936Z,1.01
2022-12-08T20:01:49.190Z,1.06
2022-12-08T20:04:24.144Z,1.06
2022-12-08T20:06:59.566Z,1.08
2022-12-08T20:09:30.249Z,1.09
2022-12-08T20:12:00.753Z,1.11
2022-12-08T20:14:31.065Z,1.12
2022-12-08T20:17:01.127Z,1.11
2022-12-08T20:19:35.746Z,1.13
2022-12-08T20:22:06.346Z,1.12
2022-12-08T20:24:37.470Z,1.14
2022-12-08T20:27:08.805Z,1.19
2022-12-08T20:29:39.600Z,1.23
2022-12-08T20:32:09.462Z,1.25
2022-12-08T20:34:40.805Z,1.26
2022-12-08T20:37:13.541Z,1.30
2022-12-08T20:39:44.887Z,1.32
2022-12-08T20:42:16.170Z,1.32
2022-12-08T20:44:46.512Z,1.30
2022-12-08T20:47:18.055Z,1.29
2022-12-08T20:49:48.583Z,1.31
2022-12-08T20:52:19.072Z,1.33
2022-12-08T20:54:49.624Z,1.31
2022-12-08T20:57:20.991Z,1.32
2022-12-08T20:59:51.188Z,1.30
2022-12-08T21:02:21.540Z,1.29
2022-12-08T21:04:52.012Z,1.29
2022-12-08T21:07:22.206Z,1.32
2022-12-08T21:09:51.833Z,1.36
2022-12-08T21:12:21.581Z,1.37
2022-12-08T21:14:51.178Z,1.38
2022-12-08T21:17:20.428Z,1.36
2022-12-08T21:19:49.357Z,1.36
2022-12-08T21:22:18.499Z,1.30
2022-12-08T21:24:47.832Z,1.28
2022-12-08T21:27:16.746Z,1.24
2022-12-08T21:29:45.573Z,1.26
2022-12-08T21:32:14.641Z,1.23
2022-12-08T21:34:44.996Z,1.21
2022-12-08T21:37:13.932Z,1.21
2022-12-08T21:39:42.545Z,1.19
2022-12-08T21:42:40.326Z,1.18
2022-12-08T21:45:09.978Z,1.18
2022-12-08T21:47:39.030Z,1.16
2022-12-08T21:50:09.144Z,1.15
2022-12-08T21:52:39.738Z,1.13
2022-12-08T21:55:12.696Z,1.12
2022-12-08T21:57:41.415Z,1.11
2022-12-08T22:00:14.369Z,1.11
2022-12-08T22:02:43.691Z,1.12
2022-12-08T22:05:12.698Z,1.13
2022-12-08T22:07:42.768Z,1.12
2022-12-08T22:10:12.712Z,1.11
2022-12-08T22:12:41.442Z,1.13
2022-12-08T22:15:11.605Z,1.13
2022-12-08T22:17:42.284Z,1.16
2022-12-08T22:20:14.581Z,1.18
2022-12-08T22:22:44.317Z,1.17
2022-12-08T22:25:13.672Z,1.15
2022-12-08T22:27:42.371Z,1.17
2022-12-08T22:30:12.723Z,1.17
2022-12-08T22:32:42.613Z,1.16
2022-12-08T22:35:11.415Z,1.10
2022-12-08T22:37:40.213Z,1.13
2022-12-08T22:40:09.448Z,1.17
2022-12-08T22:42:38.358Z,1.20
2022-12-08T22:45:08.185Z,1.22
2022-12-08T22:47:36.864Z,1.23
2022-12-08T22:50:06.636Z,1.25
2022-12-08T22:52:35.673Z,1.28
2022-12-08T22:55:31.445Z,1.27
2022-12-08T22:58:00.346Z,1.28
2022-12-08T23:00:29.494Z,1.29
2022-12-08T23:02:58.248Z,1.30
2022-12-08T23:05:27.029Z,1.31
2022-12-08T23:07:55.602Z,1.32
2022-12-08T23:10:24.035Z,1.33
2022-12-08T23:12:53.711Z,1.35
2022-12-08T23:15:22.558Z,1.37
2022-12-08T23:17:51.135Z,1.41
2022-12-08T23:20:20.359Z,1.44
2022-12-08T23:22:48.703Z,1.47
2022-12-08T23:25:18.627Z,1.47
2022-12-08T23:27:47.232Z,1.47
2022-12-08T23:30:15.900Z,1.47
2022-12-08T23:32:44.582Z,1.44
2022-12-08T23:35:13.196Z,1.36
2022-12-08T23:37:41.520Z,1.29
2022-12-08T23:40:10.417Z,1.19
2022-12-08T23:42:39.420Z,1.18
2022-12-08T23:45:09.006Z,1.22
2022-12-08T23:47:37.621Z,1.27
2022-12-08T23:50:08.110Z,1.33
2022-12-08T23:52:39.325Z,1.39
2022-12-08T23:55:09.454Z,1.40
2022-12-08T23:57:38.802Z,1.37
